createdAt,value
2019-04-11T00:02:28.897Z,77.18
2019-04-11T00:04:58.797Z,77.45
2019-04-11T00:07:26.368Z,77.61
2019-04-11T00:09:54.583Z,77.88
2019-04-11T00:12:22.157Z,78.08
2019-04-11T00:14:49.285Z,78.58
2019-04-11T00:17:17.434Z,78.92
2019-04-11T00:19:45.379Z,78.92
2019-04-11T00:22:13.184Z,79.05
2019-04-11T00:24:40.386Z,79.17
2019-04-11T00:27:07.420Z,79.78
2019-04-11T00:29:34.552Z,79.82
2019-04-11T00:32:01.598Z,80.14
2019-04-11T00:34:29.014Z,80.20
2019-04-11T00:36:56.843Z,80.43
2019-04-11T00:39:23.987Z,80.53
2019-04-11T00:41:52.319Z,80.63
2019-04-11T00:44:19.574Z,81.01
2019-04-11T00:46:46.747Z,80.88
2019-04-11T00:49:14.429Z,81.26
2019-04-11T00:51:42.346Z,81.47
2019-04-11T00:54:09.402Z,81.45
2019-04-11T00:56:36.746Z,81.78
2019-04-11T00:59:03.954Z,81.60
2019-04-11T01:01:31.586Z,81.90
2019-04-11T01:03:59.188Z,82.06
2019-04-11T01:06:27.997Z,82.26
2019-04-11T01:08:55.820Z,82.26
2019-04-11T01:11:23.778Z,82.85
2019-04-11T01:13:53.937Z,82.65
2019-04-11T01:16:45.642Z,82.82
2019-04-11T01:19:14.184Z,83.06
2019-04-11T01:21:42.384Z,83.21
2019-04-11T01:24:09.578Z,83.31
2019-04-11T01:26:37.181Z,83.48
2019-04-11T01:29:04.454Z,83.82
2019-04-11T01:31:33.717Z,83.54
2019-04-11T01:34:00.914Z,83.89
2019-04-11T01:36:35.250Z,84.13
2019-04-11T01:39:11.086Z,84.76
2019-04-11T01:41:40.530Z,84.62
2019-04-11T01:44:25.549Z,84.67
2019-04-11T01:46:58.346Z,84.71
2019-04-11T01:49:25.669Z,84.84
2019-04-11T01:51:53.852Z,85.02
2019-04-11T01:54:28.488Z,85.15
2019-04-11T01:56:55.831Z,85.33
2019-04-11T01:59:23.608Z,85.61
2019-04-11T02:02:01.251Z,85.78
2019-04-11T02:05:00.751Z,85.81
2019-04-11T02:07:30.918Z,86.00
2019-04-11T02:09:58.307Z,86.30
2019-04-11T02:12:26.893Z,86.55
2019-04-11T02:14:54.131Z,86.41
2019-04-11T02:17:22.304Z,86.77
2019-04-11T02:19:50.244Z,86.73
2019-04-11T02:22:42.821Z,87.01
2019-04-11T02:25:33.482Z,87.32
2019-04-11T02:28:01.355Z,87.37
2019-04-11T02:30:30.510Z,87.57
2019-04-11T02:32:58.348Z,87.64
2019-04-11T02:35:26.778Z,87.49
2019-04-11T02:37:54.886Z,88.13
2019-04-11T02:40:24.596Z,88.62
2019-04-11T02:42:52.044Z,88.66
2019-04-11T02:45:31.171Z,88.91
2019-04-11T02:47:51.038Z,88.69
2019-04-11T02:50:19.774Z,89.10
2019-04-11T02:52:47.348Z,89.49
2019-04-11T02:55:14.594Z,89.64
2019-04-11T02:57:42.945Z,89.42
2019-04-11T03:00:11.199Z,89.56
2019-04-11T03:02:41.627Z,89.93
2019-04-11T03:05:10.072Z,90.06
2019-04-11T03:07:38.065Z,90.15
2019-04-11T03:10:07.320Z,90.67
2019-04-11T03:12:40.504Z,90.68
2019-04-11T03:15:24.309Z,90.96
2019-04-11T03:17:43.088Z,90.75
2019-04-11T03:20:18.363Z,91.22
2019-04-11T03:22:35.696Z,91.31
2019-04-11T03:25:04.984Z,91.67
2019-04-11T03:27:34.762Z,91.54
2019-04-11T03:30:03.269Z,91.73
2019-04-11T03:33:17.938Z,91.70
2019-04-11T03:35:51.710Z,91.85
2019-04-11T03:37:55.187Z,92.62
2019-04-11T03:40:19.499Z,92.43
2019-04-11T03:42:45.175Z,92.61
2019-04-11T03:45:20.582Z,92.74
2019-04-11T03:47:40.915Z,93.38
2019-04-11T03:50:07.202Z,93.16
2019-04-11T03:52:28.428Z,93.54
2019-04-11T03:54:56.840Z,93.81
2019-04-11T03:57:25.648Z,93.90
2019-04-11T03:59:54.507Z,93.89
2019-04-11T04:02:22.574Z,94.47
2019-04-11T04:04:53.491Z,94.41
2019-04-11T04:07:21.415Z,94.55
2019-04-11T04:09:49.050Z,94.43
2019-04-11T04:12:16.267Z,94.61
2019-04-11T04:14:56.739Z,94.98
2019-04-11T04:17:41.292Z,94.68
2019-04-11T04:20:41.868Z,94.91
2019-04-11T04:23:24.781Z,95.03
2019-04-11T04:25:52.446Z,95.00
2019-04-11T04:28:21.292Z,95.14
2019-04-11T04:30:49.367Z,95.21
2019-04-11T04:33:17.130Z,95.81
2019-04-11T04:35:47.297Z,95.81
2019-04-11T04:38:15.695Z,95.89
2019-04-11T04:41:00.405Z,95.91
2019-04-11T04:43:16.535Z,95.91
2019-04-11T04:46:06.599Z,96.18
2019-04-11T04:48:17.875Z,96.03
2019-04-11T04:50:42.222Z,96.43
2019-04-11T04:53:09.426Z,96.30
2019-04-11T04:55:36.829Z,96.56
2019-04-11T04:58:04.921Z,96.68
2019-04-11T05:00:32.242Z,96.71
2019-04-11T05:03:01.937Z,96.54
2019-04-11T05:05:33.791Z,96.87
2019-04-11T05:08:02.728Z,96.95
2019-04-11T05:10:30.689Z,97.03
2019-04-11T05:12:59.210Z,97.05
2019-04-11T05:15:26.530Z,97.35
2019-04-11T05:17:53.614Z,97.31
2019-04-11T05:20:21.827Z,97.54
2019-04-11T05:22:51.299Z,97.59
2019-04-11T05:25:20.314Z,97.56
2019-04-11T05:27:47.579Z,97.62
2019-04-11T05:30:14.862Z,97.63
2019-04-11T05:32:41.937Z,97.57
2019-04-11T05:35:09.142Z,97.64
2019-04-11T05:37:37.683Z,97.38
2019-04-11T05:40:05.346Z,97.44
2019-04-11T05:42:33.405Z,97.18
2019-04-11T05:45:00.516Z,97.22
2019-04-11T05:47:27.715Z,97.08
2019-04-11T05:50:10.008Z,96.99
2019-04-11T05:52:35.216Z,96.75
2019-04-11T05:55:04.903Z,96.54
2019-04-11T05:57:41.941Z,96.31
2019-04-11T06:00:16.447Z,96.14
2019-04-11T06:02:46.919Z,95.94
2019-04-11T06:05:32.476Z,95.49
2019-04-11T06:07:59.916Z,95.13
2019-04-11T06:10:46.760Z,94.95
2019-04-11T06:13:24.688Z,94.61
2019-04-11T06:15:53.639Z,94.33
2019-04-11T06:18:39.626Z,93.89
2019-04-11T06:21:19.880Z,93.62
2019-04-11T06:24:12.701Z,93.09
2019-04-11T06:26:47.038Z,92.91
2019-04-11T06:29:23.250Z,92.29
2019-04-11T06:32:25.967Z,92.20
2019-04-11T06:35:18.507Z,91.81
2019-04-11T06:38:03.918Z,91.24
2019-04-11T06:40:39.126Z,90.68
2019-04-11T06:43:40.416Z,90.48
2019-04-11T06:46:25.013Z,90.15
2019-04-11T06:49:06.502Z,89.76
2019-04-11T06:51:46.745Z,89.34
2019-04-11T06:54:39.324Z,89.25
2019-04-11T06:57:11.799Z,88.33
2019-04-11T06:59:42.958Z,87.91
2019-04-11T07:02:18.124Z,87.50
2019-04-11T07:04:49.634Z,87.50
2019-04-11T07:07:18.431Z,87.01
2019-04-11T07:09:57.686Z,86.98
2019-04-11T07:12:34.961Z,86.72
2019-04-11T07:15:27.657Z,86.31
2019-04-11T07:18:14.021Z,86.16
2019-04-11T07:21:00.786Z,85.97
2019-04-11T07:23:47.035Z,84.90
2019-04-11T07:26:35.029Z,84.74
2019-04-11T07:29:21.833Z,84.40
2019-04-11T07:32:05.296Z,83.60
2019-04-11T07:34:45.757Z,83.23
2019-04-11T07:37:38.807Z,83.01
2019-04-11T07:40:28.834Z,82.84
2019-04-11T07:43:23.236Z,82.68
2019-04-11T07:46:22.260Z,82.25
2019-04-11T07:48:54.861Z,81.51
2019-04-11T07:51:27.618Z,81.14
2019-04-11T07:53:56.755Z,81.17
2019-04-11T07:56:35.995Z,80.67
2019-04-11T07:59:07.275Z,80.63
2019-04-11T08:01:54.950Z,80.27
2019-04-11T08:04:40.810Z,79.89
2019-04-11T08:07:40.375Z,79.45
2019-04-11T08:10:12.503Z,79.22
2019-04-11T08:12:39.606Z,79.33
2019-04-11T08:15:29.873Z,78.75
2019-04-11T08:17:59.813Z,78.76
2019-04-11T08:20:45.696Z,78.20
2019-04-11T08:23:13.788Z,78.49
2019-04-11T08:25:59.915Z,77.87
2019-04-11T08:28:27.331Z,77.88
2019-04-11T08:31:26.450Z,77.62
2019-04-11T08:33:57.219Z,77.06
2019-04-11T08:36:47.219Z,76.86
2019-04-11T08:39:18.920Z,76.77
2019-04-11T08:41:56.901Z,76.87
2019-04-11T08:44:43.989Z,76.71
2019-04-11T08:47:13.283Z,76.32
2019-04-11T08:49:42.778Z,76.32
2019-04-11T08:52:22.217Z,76.38
2019-04-11T08:54:59.120Z,75.54
2019-04-11T08:57:49.862Z,74.97
2019-04-11T09:00:37.989Z,74.77
2019-04-11T09:03:27.547Z,74.27
2019-04-11T09:06:02.543Z,73.13
2019-04-11T09:08:54.447Z,72.91
2019-04-11T09:11:26.544Z,72.71
2019-04-11T09:14:22.545Z,72.52
2019-04-11T09:16:54.225Z,72.41
2019-04-11T09:19:27.816Z,72.18
2019-04-11T09:22:25.359Z,72.33
2019-04-11T09:25:12.813Z,72.11
2019-04-11T09:28:02.897Z,70.97
2019-04-11T09:31:10.555Z,69.95
2019-04-11T09:34:03.632Z,69.61
2019-04-11T09:40:29.973Z,69.67
2019-04-11T09:43:17.997Z,68.82
2019-04-11T09:46:03.364Z,69.13
2019-04-11T09:49:02.533Z,68.22
2019-04-11T09:51:42.271Z,67.80
2019-04-11T09:54:23.957Z,67.40
2019-04-11T09:57:10.011Z,66.37
2019-04-11T10:00:03.860Z,65.63
2019-04-11T10:02:50.503Z,66.48
2019-04-11T10:05:22.362Z,66.15
2019-04-11T10:08:04.456Z,64.45
2019-04-11T10:10:53.329Z,62.91
2019-04-11T10:13:43.042Z,61.99
2019-04-11T10:16:28.741Z,62.29
2019-04-11T10:19:15.788Z,61.85
2019-04-11T10:21:47.953Z,61.14
2019-04-11T10:24:24.542Z,60.23
2019-04-11T10:26:58.377Z,58.46
2019-04-11T10:29:52.517Z,57.88
2019-04-11T10:32:23.307Z,57.99
2019-04-11T10:35:10.202Z,57.71
2019-04-11T10:37:40.062Z,56.36
2019-04-11T10:40:28.656Z,56.82
2019-04-11T10:42:56.001Z,56.67
2019-04-11T10:45:46.893Z,55.77
2019-04-11T10:48:14.088Z,55.27
2019-04-11T10:51:06.787Z,55.14
2019-04-11T10:53:33.934Z,54.47
2019-04-11T10:56:19.370Z,54.88
2019-04-11T10:58:55.411Z,54.31
2019-04-11T11:01:58.148Z,53.74
2019-04-11T11:04:34.754Z,52.70
2019-04-11T11:07:06.505Z,51.50
2019-04-11T11:09:56.751Z,50.73
2019-04-11T11:12:43.635Z,48.72
2019-04-11T11:15:17.844Z,48.98
2019-04-11T11:18:48.196Z,48.90
2019-04-11T11:21:01.754Z,48.99
2019-04-11T11:23:45.021Z,49.44
2019-04-11T11:26:27.906Z,48.65
2019-04-11T11:29:09.963Z,46.77
2019-04-11T11:31:36.383Z,47.43
2019-04-11T11:34:05.003Z,47.97
2019-04-11T11:36:51.982Z,48.49
2019-04-11T11:39:31.323Z,48.98
2019-04-11T11:42:17.835Z,48.97
2019-04-11T11:44:53.012Z,48.86
2019-04-11T11:47:41.228Z,48.05
2019-04-11T11:50:15.543Z,47.77
2019-04-11T11:52:57.358Z,47.24
2019-04-11T11:55:27.923Z,47.69
2019-04-11T11:58:16.812Z,46.46
2019-04-11T12:00:42.604Z,45.94
2019-04-11T12:03:19.042Z,43.85
2019-04-11T12:05:54.031Z,43.04
2019-04-11T12:08:45.356Z,43.04
2019-04-11T12:11:11.789Z,42.85
2019-04-11T12:14:02.007Z,43.03
2019-04-11T12:17:08.364Z,43.03
2019-04-11T12:20:02.589Z,42.79
2019-04-11T12:22:24.924Z,43.33
2019-04-11T12:25:24.990Z,42.76
2019-04-11T12:28:23.495Z,41.07
2019-04-11T12:30:57.881Z,40.21
2019-04-11T12:33:39.530Z,39.84
2019-04-11T12:36:09.856Z,39.33
2019-04-11T12:38:46.389Z,38.42
2019-04-11T12:41:35.993Z,39.71
2019-04-11T12:44:29.457Z,40.29
2019-04-11T12:47:15.808Z,37.69
2019-04-11T12:50:01.417Z,36.32
2019-04-11T12:52:37.915Z,36.76
2019-04-11T12:59:05.158Z,38.38
2019-04-11T13:01:50.463Z,37.65
2019-04-11T13:04:23.464Z,36.62
2019-04-11T13:07:09.141Z,36.37
2019-04-11T13:09:43.840Z,34.60
2019-04-11T13:12:17.706Z,34.86
2019-04-11T13:15:02.670Z,34.06
2019-04-11T13:17:32.525Z,33.45
2019-04-11T13:20:18.007Z,34.09
2019-04-11T13:22:45.549Z,33.82
2019-04-11T13:25:41.233Z,33.60
2019-04-11T13:28:08.328Z,33.75
2019-04-11T13:30:54.997Z,31.70
2019-04-11T13:33:24.489Z,32.12
2019-04-11T13:36:14.168Z,32.03
2019-04-11T13:38:46.261Z,31.95
2019-04-11T13:41:31.699Z,32.33
2019-04-11T13:44:09.903Z,31.78
2019-04-11T13:46:57.104Z,32.08
2019-04-11T13:49:42.486Z,33.04
2019-04-11T13:52:29.172Z,33.61
2019-04-11T13:55:10.909Z,34.46
2019-04-11T13:57:57.627Z,34.71
2019-04-11T14:00:46.443Z,34.68
2019-04-11T14:03:48.474Z,34.12
2019-04-11T14:06:18.975Z,33.68
2019-04-11T14:09:23.951Z,35.34
2019-04-11T14:12:10.506Z,35.74
2019-04-11T14:14:43.010Z,34.76
2019-04-11T14:17:28.430Z,34.45
2019-04-11T14:20:28.705Z,34.17
2019-04-11T14:23:14.715Z,34.79
2019-04-11T14:26:00.835Z,35.96
2019-04-11T14:28:34.719Z,35.17
2019-04-11T14:31:30.624Z,34.67
2019-04-11T14:34:03.593Z,34.85
2019-04-11T14:36:56.036Z,35.31
2019-04-11T14:39:25.364Z,34.84
2019-04-11T14:42:14.832Z,35.64
2019-04-11T14:44:42.122Z,35.80
2019-04-11T14:47:38.989Z,35.55
2019-04-11T14:50:04.592Z,35.88
2019-04-11T14:53:35.518Z,35.39
2019-04-11T14:56:05.393Z,34.99
2019-04-11T14:58:46.600Z,35.12
2019-04-11T15:01:15.520Z,35.15
2019-04-11T15:04:13.606Z,35.21
2019-04-11T15:06:45.300Z,36.49
2019-04-11T15:09:32.239Z,37.61
2019-04-11T15:12:05.311Z,37.74
2019-04-11T15:14:51.891Z,37.54
2019-04-11T15:17:26.379Z,37.28
2019-04-11T15:20:02.328Z,37.38
2019-04-11T15:22:47.677Z,36.68
2019-04-11T15:25:22.008Z,36.44
2019-04-11T15:28:12.437Z,36.19
2019-04-11T15:30:49.380Z,35.97
2019-04-11T15:33:36.264Z,36.36
2019-04-11T15:36:03.705Z,36.57
2019-04-11T15:38:46.972Z,37.62
2019-04-11T15:41:17.577Z,38.08
2019-04-11T15:44:03.192Z,38.30
2019-04-11T15:46:35.250Z,38.06
2019-04-11T15:49:34.209Z,37.30
2019-04-11T15:52:06.874Z,37.07
2019-04-11T15:54:42.734Z,37.49
2019-04-11T15:57:35.329Z,36.86
2019-04-11T16:00:28.682Z,37.97
2019-04-11T16:03:04.582Z,38.88
2019-04-11T16:05:49.908Z,39.47
2019-04-11T16:08:30.221Z,40.63
2019-04-11T16:11:05.120Z,40.82
2019-04-11T16:13:41.870Z,40.45
2019-04-11T16:16:11.882Z,40.52
2019-04-11T16:18:57.522Z,40.10
2019-04-11T16:21:33.599Z,39.48
2019-04-11T16:24:06.876Z,39.62
2019-04-11T16:26:45.455Z,39.80
2019-04-11T16:29:22.385Z,39.51
2019-04-11T16:31:49.792Z,39.60
2019-04-11T16:34:47.650Z,39.42
2019-04-11T16:37:07.117Z,39.19
2019-04-11T16:39:42.814Z,39.20
2019-04-11T16:42:11.163Z,39.79
2019-04-11T16:45:09.764Z,40.11
2019-04-11T16:47:50.105Z,40.58
2019-04-11T16:50:17.304Z,41.24
2019-04-11T16:52:44.403Z,41.41
2019-04-11T16:55:11.589Z,41.47
2019-04-11T16:57:38.675Z,42.07
2019-04-11T17:00:09.108Z,42.41
2019-04-11T17:02:36.292Z,42.14
2019-04-11T17:05:05.332Z,42.50
2019-04-11T17:07:56.172Z,42.64
2019-04-11T17:10:44.043Z,42.62
2019-04-11T17:13:11.154Z,42.55
2019-04-11T17:15:38.274Z,43.02
2019-04-11T17:18:05.338Z,42.81
2019-04-11T17:20:35.672Z,42.89
2019-04-11T17:23:02.666Z,43.27
2019-04-11T17:25:29.849Z,43.83
2019-04-11T17:27:57.117Z,44.24
2019-04-11T17:30:24.725Z,44.40
2019-04-11T17:32:55.552Z,44.60
2019-04-11T17:35:21.405Z,44.56
2019-04-11T17:37:48.514Z,44.20
2019-04-11T17:40:15.637Z,44.66
2019-04-11T17:42:44.017Z,45.05
2019-04-11T17:45:11.633Z,44.73
2019-04-11T17:47:38.795Z,45.39
2019-04-11T17:50:30.089Z,45.19
2019-04-11T17:52:57.282Z,45.26
2019-04-11T17:55:24.644Z,45.70
2019-04-11T17:57:51.752Z,46.23
2019-04-11T18:00:40.505Z,46.72
2019-04-11T18:03:44.220Z,47.06
2019-04-11T18:06:11.299Z,47.75
2019-04-11T18:08:38.457Z,48.21
2019-04-11T18:11:05.576Z,48.58
2019-04-11T18:13:32.732Z,48.73
2019-04-11T18:16:01.234Z,48.96
2019-04-11T18:18:29.115Z,49.36
2019-04-11T18:20:56.255Z,49.58
2019-04-11T18:23:23.372Z,49.86
2019-04-11T18:25:51.126Z,50.14
2019-04-11T18:28:21.674Z,50.41
2019-04-11T18:30:48.089Z,50.49
2019-04-11T18:33:15.197Z,50.35
2019-04-11T18:35:42.328Z,50.26
2019-04-11T18:38:09.436Z,50.70
2019-04-11T18:40:37.974Z,51.15
2019-04-11T18:43:05.554Z,51.43
2019-04-11T18:45:35.575Z,51.44
2019-04-11T18:48:02.871Z,51.68
2019-04-11T18:50:30.092Z,51.52
2019-04-11T18:52:59.592Z,51.92
2019-04-11T18:55:26.247Z,51.91
2019-04-11T18:57:53.485Z,51.86
2019-04-11T19:00:21.741Z,51.88
2019-04-11T19:02:49.036Z,52.09
2019-04-11T19:05:27.868Z,52.21
2019-04-11T19:07:45.672Z,52.23
2019-04-11T19:10:15.001Z,51.98
2019-04-11T19:12:44.015Z,51.91
2019-04-11T19:15:16.687Z,52.09
2019-04-11T19:17:43.964Z,52.12
2019-04-11T19:20:12.803Z,52.42
2019-04-11T19:22:39.899Z,52.50
2019-04-11T19:25:11.458Z,52.76
2019-04-11T19:27:36.784Z,52.73
2019-04-11T19:30:05.782Z,52.98
2019-04-11T19:32:32.875Z,53.12
2019-04-11T19:35:00.201Z,53.43
2019-04-11T19:37:27.433Z,53.72
2019-04-11T19:39:54.558Z,53.87
2019-04-11T19:43:05.624Z,54.11
2019-04-11T19:45:32.706Z,54.04
2019-04-11T19:47:59.990Z,54.41
2019-04-11T19:50:29.095Z,54.48
2019-04-11T19:52:56.101Z,54.87
2019-04-11T19:55:35.439Z,55.11
2019-04-11T19:58:02.567Z,55.29
2019-04-11T20:00:29.890Z,55.75
2019-04-11T20:02:58.214Z,56.21
2019-04-11T20:05:25.413Z,56.53
2019-04-11T20:07:55.456Z,56.54
2019-04-11T20:10:22.646Z,56.75
2019-04-11T20:12:50.912Z,56.86
2019-04-11T20:15:17.979Z,57.46
2019-04-11T20:17:51.094Z,57.58
2019-04-11T20:20:15.813Z,57.89
2019-04-11T20:22:43.779Z,58.23
2019-04-11T20:25:10.994Z,58.41
2019-04-11T20:27:38.273Z,58.82
2019-04-11T20:30:06.193Z,58.38
2019-04-11T20:32:33.818Z,58.08
2019-04-11T20:35:00.995Z,58.11
2019-04-11T20:37:38.699Z,58.10
2019-04-11T20:39:57.298Z,58.13
2019-04-11T20:42:24.769Z,57.68
2019-04-11T20:44:52.058Z,57.55
2019-04-11T20:47:19.163Z,57.58
2019-04-11T20:49:49.129Z,57.47
2019-04-11T20:52:17.564Z,57.51
2019-04-11T20:54:46.467Z,57.46
2019-04-11T20:57:24.953Z,57.63
2019-04-11T20:59:42.747Z,57.42
2019-04-11T21:02:09.912Z,57.09
2019-04-11T21:04:37.012Z,57.16
2019-04-11T21:07:04.134Z,57.40
2019-04-11T21:09:33.244Z,57.42
2019-04-11T21:12:00.278Z,57.73
2019-04-11T21:14:27.389Z,57.72
2019-04-11T21:16:54.493Z,58.04
2019-04-11T21:19:23.296Z,58.24
2019-04-11T21:21:53.275Z,58.23
2019-04-11T21:24:20.500Z,58.52
2019-04-11T21:26:47.670Z,58.91
2019-04-11T21:29:14.819Z,59.28
2019-04-11T21:31:41.887Z,59.72
2019-04-11T21:35:05.136Z,60.52
2019-04-11T21:37:32.320Z,60.87
2019-04-11T21:39:59.395Z,60.65
2019-04-11T21:42:26.517Z,60.90
2019-04-11T21:44:53.595Z,60.99
2019-04-11T21:47:20.658Z,61.12
2019-04-11T21:49:47.771Z,61.19
2019-04-11T21:52:15.925Z,61.26
2019-04-11T21:54:46.327Z,60.90
2019-04-11T21:57:13.437Z,60.97
2019-04-11T21:59:40.667Z,61.19
2019-04-11T22:02:09.537Z,61.86
2019-04-11T22:04:36.649Z,62.17
2019-04-11T22:07:03.782Z,62.87
2019-04-11T22:09:33.033Z,62.63
2019-04-11T22:11:59.984Z,62.73
2019-04-11T22:14:27.067Z,62.59
2019-04-11T22:16:55.048Z,62.37
2019-04-11T22:19:22.316Z,62.89
2019-04-11T22:21:49.401Z,63.69
2019-04-11T22:24:16.494Z,63.78
2019-04-11T22:27:02.105Z,64.59
2019-04-11T22:29:29.208Z,64.81
2019-04-11T22:31:56.595Z,65.41
2019-04-11T22:34:31.564Z,65.40
2019-04-11T22:36:59.990Z,65.21
2019-04-11T22:39:29.006Z,65.75
2019-04-11T22:41:57.298Z,65.68
2019-04-11T22:44:24.488Z,65.72
2019-04-11T22:46:51.591Z,65.49
2019-04-11T22:49:20.528Z,65.43
2019-04-11T22:51:47.693Z,65.24
2019-04-11T22:54:14.766Z,65.14
2019-04-11T22:56:42.408Z,65.27
2019-04-11T23:00:15.244Z,65.33
2019-04-11T23:02:56.042Z,65.05
2019-04-11T23:05:23.142Z,64.76
2019-04-11T23:07:50.213Z,64.36
2019-04-11T23:10:36.751Z,63.99
2019-04-11T23:13:03.862Z,64.03
2019-04-11T23:15:30.930Z,63.92
2019-04-11T23:17:58.022Z,63.82
2019-04-11T23:20:25.150Z,63.64
2019-04-11T23:22:52.238Z,63.52
2019-04-11T23:25:19.369Z,63.57
2019-04-11T23:27:46.444Z,63.57
2019-04-11T23:31:19.801Z,63.76
2019-04-11T23:33:44.781Z,63.43
2019-04-11T23:36:11.839Z,63.09
2019-04-11T23:38:39.027Z,62.78
2019-04-11T23:41:06.092Z,63.10
2019-04-11T23:43:33.211Z,63.28
2019-04-11T23:46:00.274Z,63.18
2019-04-11T23:48:27.336Z,63.05
2019-04-11T23:50:55.205Z,62.96
2019-04-11T23:53:23.004Z,63.11
2019-04-11T23:55:50.388Z,62.98
2019-04-11T23:58:17.504Z,62.84
